Time;durP1;ratioP1;P1;durP2;ratioP2;P2;SDS_P1;SDS_P2;PMS_P1;PMS_P2;Temp;Humidity;BMP_temperature;BMP_pressure;BME280_temperature;BME280_humidity;BME280_pressure;Samples;Min_cycle;Max_cycle;Signal;HPM_P1;HPM_P2
2022/04/30 00:02:13;;;;;;;8.07;4.40;;;;;;;9.13;63.58;102952.97;5062758;28;20035;-52
2022/04/30 00:04:44;;;;;;;8.15;4.03;;;;;;;9.13;64.09;102958.09;5064945;28;20496;-54
2022/04/30 00:07:13;;;;;;;6.20;3.67;;;;;;;9.06;64.46;102945.66;5064659;28;20035;-53
2022/04/30 00:09:38;;;;;;;6.22;3.95;;;;;;;9.07;64.28;102955.13;5060525;28;20032;-53
2022/04/30 00:12:04;;;;;;;8.68;4.18;;;;;;;9.08;64.23;102946.63;5066379;28;20102;-52
2022/04/30 00:14:30;;;;;;;7.78;3.75;;;;;;;9.01;64.23;102943.56;5064836;28;20036;-53
2022/04/30 00:16:56;;;;;;;5.60;3.50;;;;;;;8.97;64.29;102939.00;5068230;28;20033;-52
2022/04/30 00:19:23;;;;;;;7.70;3.90;;;;;;;8.96;64.71;102947.47;5068212;28;20035;-52
2022/04/30 00:21:51;;;;;;;6.25;3.60;;;;;;;9.00;64.51;102946.91;5064319;28;20656;-53
2022/04/30 00:24:17;;;;;;;5.63;3.42;;;;;;;8.96;64.87;102943.22;5063439;28;20043;-53
2022/04/30 00:26:43;;;;;;;8.02;3.58;;;;;;;9.04;64.34;102947.22;5067314;28;20028;-52
2022/04/30 00:29:09;;;;;;;7.75;3.63;;;;;;;8.96;64.88;102940.66;5065730;28;20028;-52
2022/04/30 00:31:35;;;;;;;8.05;3.67;;;;;;;8.96;64.57;102940.66;5067998;28;20126;-51
2022/04/30 00:34:02;;;;;;;5.85;3.47;;;;;;;8.97;64.63;102945.00;5064366;28;20103;-53
2022/04/30 00:36:28;;;;;;;8.88;4.07;;;;;;;8.91;64.79;102942.03;5064401;28;20024;-50
2022/04/30 00:38:54;;;;;;;6.65;3.72;;;;;;;8.94;64.86;102932.00;5065617;28;20051;-52
2022/04/30 00:41:21;;;;;;;6.47;4.03;;;;;;;8.97;64.84;102933.84;5063178;28;20481;-52
2022/04/30 00:43:49;;;;;;;8.02;3.72;;;;;;;8.97;64.76;102933.84;5067766;28;20035;-52
2022/04/30 00:46:15;;;;;;;7.28;3.60;;;;;;;8.92;65.07;102930.09;5070527;28;20531;-52
2022/04/30 00:48:41;;;;;;;7.30;4.10;;;;;;;8.88;65.13;102929.00;5064726;28;20040;-52
2022/04/30 00:51:15;;;;;;;7.72;3.78;;;;;;;8.87;65.49;102934.94;5069019;28;20028;-52
2022/04/30 00:53:46;;;;;;;8.57;3.80;;;;;;;8.87;65.17;102932.38;5065844;28;20029;-53
2022/04/30 00:56:13;;;;;;;6.60;3.90;;;;;;;8.86;65.56;102936.59;5064514;28;20021;-52
2022/04/30 00:58:40;;;;;;;9.65;3.83;;;;;;;8.90;65.23;102929.09;5062345;28;20032;-51
2022/04/30 01:01:06;;;;;;;6.47;3.38;;;;;;;8.81;65.48;102924.25;5065872;28;20059;-54
2022/04/30 01:03:32;;;;;;;6.55;3.92;;;;;;;8.79;65.50;102919.00;5068939;28;20079;-53
2022/04/30 01:05:59;;;;;;;6.35;3.67;;;;;;;8.76;65.80;102917.91;5067407;28;20485;-52
2022/04/30 01:08:28;;;;;;;7.93;3.35;;;;;;;8.79;65.85;102926.69;5061971;28;20028;-51
2022/04/30 01:10:55;;;;;;;4.60;3.40;;;;;;;8.73;66.04;102916.00;5059189;28;20111;-53
2022/04/30 01:13:20;;;;;;;9.40;3.67;;;;;;;8.64;66.04;102914.50;5062097;28;20426;-53
2022/04/30 01:15:46;;;;;;;5.43;3.88;;;;;;;8.66;66.13;102918.06;5061532;28;20078;-52
2022/04/30 01:18:12;;;;;;;6.00;3.65;;;;;;;8.59;66.42;102920.22;5067707;28;20024;-52
2022/04/30 01:20:42;;;;;;;5.68;4.20;;;;;;;8.63;66.58;102913.63;5061356;28;20067;-52
2022/04/30 01:23:09;;;;;;;6.90;3.88;;;;;;;8.56;66.58;102916.56;5065504;28;20362;-53
2022/04/30 01:25:37;;;;;;;7.72;4.15;;;;;;;8.51;66.60;102911.09;5065061;28;20047;-52
2022/04/30 01:28:04;;;;;;;9.40;4.47;;;;;;;8.49;66.96;102912.69;5062244;28;20036;-50
2022/04/30 01:30:30;;;;;;;6.88;3.95;;;;;;;8.47;67.25;102909.09;5064283;28;20294;-53
2022/04/30 01:38:27;;;;;;;9.02;4.40;;;;;;;8.37;67.87;102909.25;5068831;28;20075;-53
2022/04/30 01:40:52;;;;;;;9.65;4.35;;;;;;;8.36;66.79;102902.34;5060820;28;20061;-52
2022/04/30 01:43:19;;;;;;;9.18;4.70;;;;;;;8.41;67.41;102901.00;5068912;28;20189;-52
2022/04/30 01:45:45;;;;;;;6.57;4.25;;;;;;;8.33;67.82;102902.09;5066884;28;20040;-53
2022/04/30 01:48:14;;;;;;;7.60;4.80;;;;;;;8.33;67.60;102908.13;5066990;28;20040;-52
2022/04/30 01:50:40;;;;;;;8.82;4.80;;;;;;;8.37;67.66;102905.78;5065396;28;20123;-50
2022/04/30 01:53:06;;;;;;;8.40;4.35;;;;;;;8.30;67.93;102899.31;5063314;28;20036;-52
2022/04/30 01:55:31;;;;;;;7.00;4.50;;;;;;;8.32;67.92;102905.47;5067575;28;20291;-51
2022/04/30 01:57:57;;;;;;;10.75;4.80;;;;;;;8.27;68.01;102899.13;5062220;28;20024;-53
2022/04/30 02:00:22;;;;;;;7.07;4.93;;;;;;;8.22;68.53;102897.91;5067292;28;20039;-52
2022/04/30 02:02:49;;;;;;;9.98;4.70;;;;;;;8.26;68.49;102900.78;5062216;28;20032;-53
2022/04/30 02:05:16;;;;;;;12.60;4.55;;;;;;;8.25;68.27;102896.47;5067127;28;20381;-51
2022/04/30 02:07:49;;;;;;;11.75;5.10;;;;;;;8.28;68.24;102891.53;5067420;28;20024;-52
2022/04/30 02:10:15;;;;;;;11.55;5.30;;;;;;;8.21;68.31;102891.00;5066092;28;20524;-53
2022/04/30 02:12:41;;;;;;;7.80;4.82;;;;;;;8.14;68.69;102884.56;5065086;28;20488;-48
2022/04/30 02:15:08;;;;;;;9.50;5.00;;;;;;;8.14;68.45;102888.81;5066268;28;20606;-53
2022/04/30 02:17:38;;;;;;;7.85;5.25;;;;;;;8.11;68.63;102881.78;5066112;28;20574;-52
2022/04/30 02:20:18;;;;;;;11.43;5.20;;;;;;;8.13;68.64;102881.88;5066283;28;20473;-53
2022/04/30 02:22:44;;;;;;;9.38;5.57;;;;;;;8.11;69.04;102879.22;5065201;28;20035;-53
2022/04/30 02:25:12;;;;;;;9.00;5.80;;;;;;;8.03;69.12;102882.91;5063398;28;20036;-53
2022/04/30 02:27:42;;;;;;;6.85;5.07;;;;;;;7.97;69.43;102882.47;5058609;28;20025;-53
2022/04/30 02:30:17;;;;;;;10.85;5.40;;;;;;;8.03;69.35;102876.13;5064115;28;20028;-51
2022/04/30 02:32:54;;;;;;;7.70;5.47;;;;;;;8.08;69.31;102881.56;5061061;28;20021;-46
2022/04/30 02:35:26;;;;;;;11.63;5.25;;;;;;;8.10;69.27;102881.66;5066882;28;20024;-52
2022/04/30 02:37:54;;;;;;;9.63;5.57;;;;;;;8.01;69.52;102872.56;5064119;28;20028;-53
2022/04/30 02:40:21;;;;;;;7.65;5.35;;;;;;;8.00;69.63;102869.88;5062860;28;20040;-52
2022/04/30 02:42:47;;;;;;;11.32;6.35;;;;;;;7.88;69.83;102864.78;5066609;28;20544;-52
2022/04/30 02:45:13;;;;;;;9.45;5.85;;;;;;;7.88;70.12;102875.00;5066511;28;20107;-51
2022/04/30 02:47:41;;;;;;;10.23;6.20;;;;;;;7.88;70.00;102863.88;5065286;28;20032;-49
2022/04/30 02:50:12;;;;;;;12.10;6.20;;;;;;;7.84;70.24;102869.59;5065660;28;20024;-53
2022/04/30 02:52:38;;;;;;;9.63;5.95;;;;;;;7.77;70.27;102865.72;5064498;28;20488;-51
2022/04/30 02:55:05;;;;;;;9.10;6.20;;;;;;;7.77;70.41;102865.72;5067092;28;20561;-52
2022/04/30 03:00:30;;;;;;;9.98;6.15;;;;;;;7.76;70.62;102866.47;5065551;28;20498;-49
2022/04/30 03:02:57;;;;;;;10.55;5.82;;;;;;;7.78;70.38;102870.03;5063312;28;20028;-53
2022/04/30 03:05:23;;;;;;;11.10;6.38;;;;;;;7.74;70.53;102865.47;5061447;28;20404;-49
2022/04/30 03:07:49;;;;;;;11.38;6.32;;;;;;;7.72;70.77;102867.03;5060496;28;20044;-50
2022/04/30 03:10:14;;;;;;;11.88;6.78;;;;;;;7.71;70.64;102863.59;5065044;28;20485;-49
2022/04/30 03:12:40;;;;;;;11.60;6.55;;;;;;;7.68;71.01;102859.91;5062051;28;20021;-52
2022/04/30 03:15:06;;;;;;;10.02;6.15;;;;;;;7.67;71.00;102870.94;5059364;28;20040;-53
2022/04/30 03:23:01;;;;;;;11.52;6.85;;;;;;;7.70;70.73;102855.78;5065881;28;20044;-52
2022/04/30 03:25:26;;;;;;;11.48;7.50;;;;;;;7.67;71.15;102847.91;5066471;28;20028;-51
2022/04/30 03:27:51;;;;;;;10.85;6.82;;;;;;;7.70;70.46;102848.09;5064010;28;20028;-50
2022/04/30 03:30:17;;;;;;;8.30;6.35;;;;;;;7.71;70.75;102850.78;5066230;28;20139;-48
2022/04/30 03:32:42;;;;;;;12.40;7.22;;;;;;;7.62;71.08;102850.13;5064865;28;20039;-52
2022/04/30 03:35:11;;;;;;;13.52;7.30;;;;;;;7.65;71.36;102849.47;5066825;28;20036;-52
2022/04/30 03:37:36;;;;;;;11.88;7.13;;;;;;;7.60;71.26;102841.44;5063806;28;20461;-52
2022/04/30 03:40:04;;;;;;;12.98;7.25;;;;;;;7.59;71.16;102843.91;5063030;28;20123;-52
2022/04/30 03:42:30;;;;;;;11.70;6.78;;;;;;;7.56;71.34;102849.69;5064770;28;20408;-52
2022/04/30 03:44:56;;;;;;;13.95;6.95;;;;;;;7.57;71.53;102845.44;5065941;28;20392;-50
2022/04/30 03:47:22;;;;;;;10.68;6.95;;;;;;;7.58;71.36;102843.00;5068338;28;20040;-51
2022/04/30 03:49:47;;;;;;;10.35;6.85;;;;;;;7.59;71.21;102843.91;5069988;28;20036;-53
2022/04/30 03:52:13;;;;;;;12.25;6.40;;;;;;;7.49;71.72;102847.47;5068031;28;20515;-52
2022/04/30 03:54:39;;;;;;;10.40;6.85;;;;;;;7.45;71.84;102846.34;5066573;28;20584;-52
2022/04/30 03:57:06;;;;;;;13.80;6.80;;;;;;;7.47;72.00;102847.38;5066075;28;20052;-53
2022/04/30 03:59:33;;;;;;;11.32;6.45;;;;;;;7.47;71.81;102839.69;5069797;28;20032;-52
2022/04/30 04:01:59;;;;;;;10.27;6.80;;;;;;;7.43;71.41;102840.22;5067598;28;20482;-49
2022/04/30 04:04:25;;;;;;;11.00;7.43;;;;;;;7.40;71.99;102842.59;5065115;28;20032;-51
2022/04/30 04:06:50;;;;;;;12.30;7.10;;;;;;;7.43;72.69;102837.66;5069083;28;20366;-53
2022/04/30 04:09:16;;;;;;;13.23;7.88;;;;;;;7.40;72.40;102834.91;5066976;28;20024;-52
2022/04/30 04:11:41;;;;;;;10.73;6.70;;;;;;;7.32;72.64;102836.00;5066862;28;20035;-53
2022/04/30 04:19:34;;;;;;;13.48;7.55;;;;;;;7.43;72.58;102834.22;5067690;28;20066;-52
2022/04/30 04:22:00;;;;;;;13.70;7.18;;;;;;;7.41;72.50;102841.81;5068920;28;20029;-49
2022/04/30 04:27:09;;;;;;;13.13;7.50;;;;;;;7.45;72.68;102848.91;5067531;28;20083;-50
2022/04/30 04:29:35;;;;;;;10.35;7.38;;;;;;;7.40;72.68;102842.59;5068756;28;20103;-52
2022/04/30 04:32:00;;;;;;;12.27;7.72;;;;;;;7.43;73.01;102847.91;5068431;28;20472;-52
2022/04/30 04:34:26;;;;;;;15.05;7.78;;;;;;;7.40;72.67;102846.78;5069833;28;20027;-51
2022/04/30 04:36:51;;;;;;;12.30;8.13;;;;;;;7.37;73.01;102844.91;5069017;28;20023;-49
2022/04/30 04:39:17;;;;;;;13.68;8.23;;;;;;;7.37;73.00;102837.22;5068277;28;20507;-49
2022/04/30 04:41:44;;;;;;;12.05;8.02;;;;;;;7.38;73.28;102851.81;5066982;28;20098;-52
2022/04/30 04:44:10;;;;;;;15.32;8.25;;;;;;;7.38;73.04;102849.25;5067973;28;20484;-51
2022/04/30 04:46:40;;;;;;;13.07;8.02;;;;;;;7.41;72.99;102856.28;5066292;28;20027;-51
2022/04/30 04:49:06;;;;;;;15.32;8.20;;;;;;;7.37;73.05;102860.25;5068672;28;20500;-52
2022/04/30 04:51:34;;;;;;;14.57;7.50;;;;;;;7.31;73.88;102861.50;5064575;28;20059;-52
2022/04/30 04:54:01;;;;;;;13.02;8.07;;;;;;;7.35;73.47;102866.06;5069280;28;20031;-52
2022/04/30 04:56:26;;;;;;;13.38;8.32;;;;;;;7.39;73.47;102860.38;5064452;28;20029;-53
2022/04/30 04:58:52;;;;;;;12.93;8.18;;;;;;;7.35;73.71;102859.28;5066082;28;20029;-51
2022/04/30 05:01:17;;;;;;;11.48;7.97;;;;;;;7.40;73.52;102873.31;5065242;28;20540;-51
2022/04/30 05:03:43;;;;;;;16.13;8.68;;;;;;;7.33;74.43;102878.72;5066468;28;20396;-47
2022/04/30 05:06:08;;;;;;;11.65;8.13;;;;;;;7.41;74.15;102869.06;5047501;28;20045;-45
2022/04/30 05:08:33;;;;;;;14.65;8.05;;;;;;;7.45;73.99;102881.28;5062962;28;20090;-51
2022/04/30 05:10:59;;;;;;;13.32;8.20;;;;;;;7.45;74.16;102882.19;5060586;28;20040;-51
2022/04/30 05:13:24;;;;;;;13.35;9.13;;;;;;;7.48;74.35;102887.53;5065238;28;20058;-52
2022/04/30 05:15:50;;;;;;;14.38;9.07;;;;;;;7.56;74.16;102890.66;5064785;28;20036;-52
2022/04/30 05:18:15;;;;;;;12.98;8.63;;;;;;;7.63;73.81;102886.84;5065852;28;20115;-52
2022/04/30 05:20:41;;;;;;;13.82;7.68;;;;;;;7.63;74.18;102889.41;5066463;28;20036;-51
2022/04/30 05:23:06;;;;;;;14.98;8.15;;;;;;;7.73;73.88;102886.75;5065175;28;20040;-52
2022/04/30 05:25:32;;;;;;;12.25;7.85;;;;;;;7.69;74.11;102883.06;5066402;28;20028;-52
2022/04/30 05:27:57;;;;;;;15.52;7.93;;;;;;;7.78;74.01;102880.28;5062914;28;20063;-49
2022/04/30 05:30:23;;;;;;;12.70;8.32;;;;;;;7.86;73.81;102876.59;5064187;28;20451;-52
2022/04/30 05:32:48;;;;;;;12.68;8.27;;;;;;;7.87;74.01;102885.16;5067871;28;20020;-51
2022/04/30 05:35:14;;;;;;;14.15;7.82;;;;;;;7.88;74.02;102882.69;5065573;28;20059;-53
2022/04/30 05:37:40;;;;;;;12.85;8.13;;;;;;;7.97;73.77;102880.81;5066840;28;20024;-52
2022/04/30 05:40:06;;;;;;;19.58;9.57;;;;;;;8.06;73.66;102886.56;5066360;28;20061;-52
2022/04/30 05:42:32;;;;;;;16.75;8.98;;;;;;;8.04;73.26;102890.69;5062915;28;20675;-52
2022/04/30 05:44:58;;;;;;;13.57;8.15;;;;;;;8.14;73.67;102886.25;5068047;28;20036;-53
2022/04/30 05:47:24;;;;;;;13.65;8.25;;;;;;;8.17;73.65;102884.75;5063483;28;20056;-52
2022/04/30 05:49:49;;;;;;;15.63;8.60;;;;;;;8.18;73.55;102881.41;5058546;28;20036;-53
2022/04/30 05:52:15;;;;;;;14.93;7.70;;;;;;;8.30;73.34;102883.94;5062769;28;20075;-50
2022/04/30 05:54:40;;;;;;;14.63;8.68;;;;;;;8.30;73.03;102882.25;5061934;28;20101;-48
2022/04/30 05:57:05;;;;;;;13.18;7.88;;;;;;;8.36;73.20;102888.63;5061550;28;20032;-53
2022/04/30 05:59:31;;;;;;;15.98;8.38;;;;;;;8.43;72.96;102881.47;5063601;28;20645;-50
2022/04/30 06:01:56;;;;;;;16.85;8.00;;;;;;;8.52;72.99;102892.38;5066151;28;20031;-52
2022/04/30 06:04:21;;;;;;;12.13;7.53;;;;;;;8.64;72.15;102886.31;5063151;28;20040;-52
2022/04/30 06:06:47;;;;;;;13.32;8.38;;;;;;;8.73;72.41;102889.47;5065468;28;20059;-48
2022/04/30 06:09:13;;;;;;;12.27;7.63;;;;;;;8.78;72.20;102894.13;5062541;28;20508;-52
2022/04/30 06:11:39;;;;;;;11.13;7.55;;;;;;;8.87;71.92;102891.31;5060908;28;20048;-53
2022/04/30 06:14:04;;;;;;;14.77;8.02;;;;;;;8.91;71.59;102894.97;5065830;28;20087;-53
2022/04/30 06:16:30;;;;;;;13.38;7.45;;;;;;;8.99;71.41;102888.69;5062205;28;20078;-50
2022/04/30 06:18:55;;;;;;;16.75;8.27;;;;;;;9.10;70.99;102893.75;5062572;28;20036;-49
2022/04/30 06:21:22;;;;;;;13.85;7.97;;;;;;;9.17;70.97;102889.03;5063271;28;21523;-53
2022/04/30 06:23:47;;;;;;;12.60;7.10;;;;;;;9.31;70.51;102896.81;5062247;28;20115;-50
2022/04/30 06:26:13;;;;;;;12.23;7.80;;;;;;;9.36;70.67;102899.69;5063928;28;20178;-52
2022/04/30 06:28:38;;;;;;;13.30;7.40;;;;;;;9.42;70.39;102894.97;5062712;28;20082;-51
2022/04/30 06:31:04;;;;;;;11.80;7.47;;;;;;;9.46;70.43;102896.91;5062561;28;20499;-51
2022/04/30 06:33:29;;;;;;;10.35;7.03;;;;;;;9.56;70.10;102891.59;5058118;28;20532;-51
2022/04/30 06:35:55;;;;;;;13.88;7.38;;;;;;;9.63;69.99;102893.75;5058447;28;20378;-51
2022/04/30 06:38:21;;;;;;;13.20;7.10;;;;;;;9.73;69.70;102897.81;5058829;28;20031;-51
2022/04/30 06:40:47;;;;;;;12.50;7.25;;;;;;;9.79;69.42;102900.78;5066650;28;20481;-52
2022/04/30 06:43:13;;;;;;;14.75;6.97;;;;;;;9.90;69.10;102886.06;5063384;28;20166;-53
2022/04/30 06:45:39;;;;;;;11.57;7.07;;;;;;;10.04;68.65;102886.91;5064660;28;20143;-49
2022/04/30 06:48:04;;;;;;;12.57;7.10;;;;;;;10.12;68.63;102878.88;5041287;28;20036;-51
2022/04/30 06:50:30;;;;;;;10.60;6.80;;;;;;;10.27;67.77;102885.78;5027576;28;20097;-50
2022/04/30 06:58:24;;;;;;;9.98;6.03;;;;;;;10.68;66.46;102889.19;5060397;28;20043;-53
2022/04/30 07:03:24;;;;;;;12.88;6.30;;;;;;;10.87;65.59;102887.72;5059214;28;20120;-53
2022/04/30 07:06:03;;;;;;;8.70;6.13;;;;;;;10.97;65.28;102890.00;5057897;28;20511;-52
2022/04/30 07:08:32;;;;;;;10.02;6.13;;;;;;;11.08;64.79;102888.06;5056622;28;20585;-50
2022/04/30 07:10:58;;;;;;;13.88;6.20;;;;;;;11.17;64.33;102891.19;5062697;28;20653;-52
2022/04/30 07:13:24;;;;;;;10.95;6.05;;;;;;;11.27;63.95;102873.75;5059996;28;20032;-47
2022/04/30 07:15:49;;;;;;;8.90;5.28;;;;;;;11.39;63.93;102891.59;5057440;28;20033;-53
2022/04/30 07:18:14;;;;;;;12.55;5.85;;;;;;;11.42;62.92;102891.78;5064517;28;20085;-53
2022/04/30 07:20:40;;;;;;;8.93;5.43;;;;;;;11.44;61.65;102886.72;5060584;28;20110;-52
2022/04/30 07:23:05;;;;;;;10.13;5.70;;;;;;;11.38;61.67;102883.78;5061605;28;20036;-53
2022/04/30 07:25:30;;;;;;;8.65;5.32;;;;;;;11.49;63.27;102891.34;5058164;28;20037;-51
2022/04/30 07:27:56;;;;;;;9.77;4.75;;;;;;;11.59;62.54;102889.25;5063326;28;20485;-52
2022/04/30 07:30:21;;;;;;;9.27;5.10;;;;;;;11.63;61.58;102886.94;5061419;28;20052;-53
2022/04/30 07:32:47;;;;;;;10.07;5.30;;;;;;;11.70;61.68;102886.47;5063338;28;20396;-53
2022/04/30 07:35:12;;;;;;;8.45;5.10;;;;;;;11.89;61.73;102890.09;5065721;28;20032;-48
2022/04/30 07:37:38;;;;;;;7.35;4.85;;;;;;;11.90;60.13;102890.22;5057879;28;20027;-49
2022/04/30 07:40:04;;;;;;;8.35;4.93;;;;;;;12.01;61.24;102885.63;5060053;28;20643;-52
2022/04/30 07:42:30;;;;;;;15.40;5.93;;;;;;;12.00;59.86;102882.16;5057898;28;20043;-52
2022/04/30 07:44:59;;;;;;;7.22;4.60;;;;;;;12.00;61.39;102884.72;5064537;28;20067;-53
2022/04/30 07:47:25;;;;;;;10.63;4.82;;;;;;;12.07;60.21;102880.78;5060404;28;20032;-52
2022/04/30 07:49:51;;;;;;;7.65;4.88;;;;;;;12.18;60.18;102879.69;5062955;28;20036;-53
2022/04/30 07:52:16;;;;;;;11.27;4.93;;;;;;;12.27;60.01;102879.31;5059008;28;20036;-50
2022/04/30 07:54:43;;;;;;;7.80;4.30;;;;;;;12.42;59.39;102882.69;5063804;28;20401;-53
2022/04/30 07:57:09;;;;;;;9.05;4.50;;;;;;;12.43;58.06;102875.81;5066377;28;20067;-53
2022/04/30 07:59:34;;;;;;;9.43;4.45;;;;;;;12.47;58.10;102881.22;5064135;28;20031;-53
2022/04/30 08:02:00;;;;;;;5.75;4.20;;;;;;;12.58;58.23;102876.63;5064180;28;20033;-53
2022/04/30 08:04:25;;;;;;;9.90;4.05;;;;;;;12.52;56.91;102878.91;5067865;28;20056;-53
2022/04/30 08:06:51;;;;;;;8.02;4.25;;;;;;;12.42;57.70;102868.91;5060649;28;20033;-52
2022/04/30 08:09:16;;;;;;;8.30;4.15;;;;;;;12.29;58.40;102872.53;5061541;28;20045;-52
2022/04/30 08:11:42;;;;;;;9.23;4.50;;;;;;;12.24;59.13;102874.84;5061773;28;21055;-52
2022/04/30 08:14:07;;;;;;;8.25;4.38;;;;;;;12.28;59.19;102866.47;5056141;28;20064;-53
2022/04/30 08:16:33;;;;;;;10.15;4.55;;;;;;;12.32;58.51;102873.59;5061192;28;20082;-52
2022/04/30 08:18:58;;;;;;;9.32;4.40;;;;;;;12.39;58.67;102879.94;5062322;28;20276;-52
2022/04/30 08:21:25;;;;;;;7.75;4.70;;;;;;;12.38;58.43;102869.53;5060736;28;20029;-53
2022/04/30 08:23:50;;;;;;;9.63;4.68;;;;;;;12.46;58.75;102871.72;5060725;28;20524;-53
2022/04/30 08:26:16;;;;;;;9.35;4.55;;;;;;;12.61;58.77;102869.03;5063455;28;20033;-53
2022/04/30 08:28:41;;;;;;;9.63;4.40;;;;;;;12.76;59.13;102866.38;5060397;28;20055;-52
2022/04/30 08:31:07;;;;;;;10.32;4.65;;;;;;;12.65;57.53;102868.41;5061116;28;20035;-52
2022/04/30 08:33:33;;;;;;;8.55;4.50;;;;;;;12.41;57.84;102870.59;5066366;28;20488;-53
2022/04/30 08:35:58;;;;;;;10.95;3.60;;;;;;;12.35;58.15;102870.28;5067266;28;20104;-53
2022/04/30 08:38:23;;;;;;;6.88;4.30;;;;;;;12.22;58.42;102867.84;5067174;28;20059;-52
2022/04/30 08:40:49;;;;;;;9.07;4.40;;;;;;;12.11;58.55;102867.28;5066192;28;20048;-51
2022/04/30 08:43:16;;;;;;;8.18;4.30;;;;;;;12.04;58.96;102866.06;5065588;28;20064;-52
2022/04/30 08:45:44;;;;;;;10.60;4.50;;;;;;;11.93;59.45;102864.59;5067362;28;20013;-53
2022/04/30 08:48:11;;;;;;;6.65;4.40;;;;;;;11.98;59.49;102857.09;5065611;28;20036;-52
2022/04/30 08:50:41;;;;;;;9.00;4.43;;;;;;;11.99;59.52;102859.75;5066159;28;20028;-53
2022/04/30 08:53:07;;;;;;;11.77;5.15;;;;;;;12.00;59.46;102858.06;5065873;28;20511;-53
2022/04/30 08:55:33;;;;;;;10.60;4.85;;;;;;;11.96;59.47;102862.19;5068632;28;20078;-51
2022/04/30 08:57:59;;;;;;;7.63;5.10;;;;;;;11.86;59.34;102854.75;5066095;28;20534;-53
2022/04/30 09:00:24;;;;;;;8.50;4.78;;;;;;;11.90;59.32;102851.53;5063385;28;20070;-53
2022/04/30 09:02:54;;;;;;;12.70;4.45;;;;;;;11.93;59.12;102850.81;5068016;28;20078;-51
2022/04/30 09:05:20;;;;;;;8.85;4.32;;;;;;;11.97;58.71;102855.34;5068382;28;20032;-53
2022/04/30 09:07:54;;;;;;;7.15;4.40;;;;;;;12.07;58.26;102847.28;5065894;28;20029;-53
2022/04/30 09:10:27;;;;;;;9.23;4.22;;;;;;;12.13;58.49;102852.75;5065755;28;20477;-53
2022/04/30 09:12:53;;;;;;;5.32;3.67;;;;;;;12.16;57.85;102857.22;5069019;28;20476;-52
2022/04/30 09:15:19;;;;;;;7.50;4.55;;;;;;;12.20;57.73;102854.00;5068864;28;20035;-52
2022/04/30 09:18:00;;;;;;;10.00;4.63;;;;;;;12.29;57.79;102850.19;5067734;28;20078;-53
2022/04/30 09:20:27;;;;;;;8.43;4.70;;;;;;;12.29;57.69;102847.63;5069424;28;20031;-53
2022/04/30 09:22:53;;;;;;;7.38;4.40;;;;;;;12.28;56.12;102855.28;5068329;28;20048;-52
2022/04/30 09:25:19;;;;;;;7.03;4.68;;;;;;;12.29;56.36;102852.78;5068373;28;20063;-52
2022/04/30 09:27:50;;;;;;;8.02;4.40;;;;;;;12.31;56.25;102843.41;5066284;28;20036;-52
2022/04/30 09:30:29;;;;;;;6.50;4.00;;;;;;;12.36;55.74;102841.06;5066781;28;20040;-52
2022/04/30 09:33:00;;;;;;;6.72;3.92;;;;;;;12.34;55.32;102840.13;5065024;28;20153;-52
2022/04/30 09:38:11;;;;;;;9.45;4.15;;;;;;;12.34;54.99;102835.84;5065035;28;20186;-49
2022/04/30 09:40:37;;;;;;;6.70;4.28;;;;;;;12.33;55.00;102838.34;5066391;28;20068;-53
2022/04/30 09:43:05;;;;;;;7.18;3.88;;;;;;;12.37;54.59;102835.09;5068822;28;20385;-52
2022/04/30 09:45:35;;;;;;;6.13;3.55;;;;;;;12.45;54.20;102828.66;5066921;28;20493;-52
2022/04/30 09:56:31;;;;;;;7.45;4.07;;;;;;;12.55;53.51;102830.00;5066853;28;20054;-53
2022/04/30 09:58:57;;;;;;;6.25;4.10;;;;;;;12.60;53.60;102825.97;5062790;28;20536;-51
2022/04/30 10:01:25;;;;;;;6.80;4.68;;;;;;;12.55;53.86;102825.72;5066344;28;20024;-53
2022/04/30 10:03:50;;;;;;;6.57;4.47;;;;;;;12.55;53.96;102814.53;5066249;28;20028;-52
2022/04/30 10:06:17;;;;;;;8.75;4.63;;;;;;;12.58;54.05;102807.84;5066064;28;20456;-53
2022/04/30 10:08:44;;;;;;;6.18;4.35;;;;;;;12.57;53.23;102808.66;5064806;28;20035;-50
2022/04/30 10:11:34;;;;;;;7.05;4.50;;;;;;;12.67;53.62;102811.69;5062666;28;20454;-53
2022/04/30 10:14:05;;;;;;;8.95;4.20;;;;;;;12.78;54.26;102803.66;5065614;28;20393;-53
2022/04/30 10:16:31;;;;;;;7.22;4.60;;;;;;;12.78;53.57;102802.78;5063630;28;20029;-53
2022/04/30 10:19:16;;;;;;;9.65;4.65;;;;;;;12.86;52.98;102794.63;5064167;28;20041;-51
2022/04/30 10:21:42;;;;;;;6.50;4.32;;;;;;;12.88;52.63;102798.16;5060513;28;20485;-53
2022/04/30 10:24:12;;;;;;;7.25;4.45;;;;;;;12.88;51.69;102793.00;5060081;28;20028;-53
2022/04/30 10:26:39;;;;;;;7.65;3.85;;;;;;;12.93;52.05;102793.25;5064838;28;20530;-53
2022/04/30 10:29:11;;;;;;;8.10;4.03;;;;;;;13.04;52.35;102784.31;5064189;28;20481;-53
2022/04/30 10:31:44;;;;;;;6.43;4.60;;;;;;;13.09;51.55;102779.34;5065622;28;20362;-53
2022/04/30 10:34:10;;;;;;;8.93;4.40;;;;;;;13.33;50.55;102779.66;5063950;28;20031;-53
2022/04/30 10:36:38;;;;;;;8.23;3.90;;;;;;;13.59;50.07;102781.78;5064957;28;20153;-53
2022/04/30 10:39:06;;;;;;;6.93;3.97;;;;;;;13.62;48.15;102781.91;5066088;28;20115;-53
2022/04/30 10:41:45;;;;;;;7.10;3.80;;;;;;;13.83;49.50;102776.84;5063827;28;20051;-53
2022/04/30 10:44:13;;;;;;;5.05;3.60;;;;;;;13.97;47.69;102772.28;5064010;28;20060;-49
2022/04/30 10:46:42;;;;;;;6.18;3.40;;;;;;;14.18;46.84;102765.47;5067104;28;20114;-48
2022/04/30 10:49:08;;;;;;;;;;;;;;;14.39;48.92;102760.34;5067126;28;20396;-54
2022/04/30 10:51:37;;;;;;;8.18;3.70;;;;;;;14.42;46.79;102763.03;5066712;28;19917;-53
2022/04/30 10:54:07;;;;;;;5.40;3.65;;;;;;;14.46;46.88;102757.22;5066757;28;20469;-52
2022/04/30 10:56:32;;;;;;;4.60;3.20;;;;;;;14.83;47.61;102748.38;5065387;28;20095;-52
2022/04/30 10:58:58;;;;;;;6.05;3.20;;;;;;;15.02;45.52;102750.00;5065797;28;20042;-54
2022/04/30 11:01:23;;;;;;;5.95;3.10;;;;;;;15.18;45.36;102749.78;5067129;28;20025;-53
2022/04/30 11:03:50;;;;;;;7.57;3.67;;;;;;;15.15;44.80;102749.66;5064941;28;20461;-54
2022/04/30 11:06:23;;;;;;;4.90;3.70;;;;;;;15.38;44.58;102747.97;5062350;28;20119;-54
2022/04/30 11:09:08;;;;;;;7.55;3.53;;;;;;;15.58;44.49;102740.94;5057937;28;20032;-52
2022/04/30 11:11:35;;;;;;;7.28;3.42;;;;;;;15.70;42.16;102733.63;5061443;28;20190;-53
2022/04/30 11:14:06;;;;;;;4.55;3.13;;;;;;;15.78;40.26;102739.13;5065079;28;20404;-54
2022/04/30 11:16:36;;;;;;;6.68;3.30;;;;;;;15.86;40.15;102737.69;5067099;28;20019;-54
2022/04/30 11:19:06;;;;;;;4.18;2.75;;;;;;;15.77;38.94;102730.47;5063604;28;20473;-52
2022/04/30 11:21:42;;;;;;;6.47;2.80;;;;;;;15.88;39.27;102730.84;5065791;28;20024;-53
2022/04/30 11:24:09;;;;;;;3.90;2.65;;;;;;;15.93;38.66;102731.00;5063436;28;20101;-53
2022/04/30 11:26:39;;;;;;;6.53;3.13;;;;;;;16.14;38.84;102713.59;5063796;28;20032;-52
2022/04/30 11:29:13;;;;;;;6.15;2.70;;;;;;;16.15;37.73;102715.38;5064547;28;20048;-54
2022/04/30 11:31:39;;;;;;;6.30;3.58;;;;;;;16.07;38.01;102716.78;5064518;28;20021;-54
2022/04/30 11:34:11;;;;;;;4.70;3.00;;;;;;;16.23;37.87;102710.44;5065905;28;20044;-52
2022/04/30 11:36:44;;;;;;;4.85;2.78;;;;;;;16.27;36.54;102713.19;5061242;28;20020;-54
2022/04/30 11:39:11;;;;;;;8.52;3.10;;;;;;;16.21;38.05;102710.38;5065078;28;20086;-54
2022/04/30 11:41:44;;;;;;;5.70;2.95;;;;;;;16.12;39.24;102715.25;5063137;28;20033;-54
2022/04/30 11:44:11;;;;;;;6.50;3.25;;;;;;;15.91;39.52;102715.38;5064139;28;20094;-49
2022/04/30 11:46:39;;;;;;;6.32;3.90;;;;;;;15.71;42.15;102713.78;5057135;28;20108;-54
2022/04/30 11:49:12;;;;;;;8.05;4.15;;;;;;;15.63;43.37;102710.03;5061883;28;20119;-53
2022/04/30 11:51:38;;;;;;;7.50;4.25;;;;;;;15.38;43.87;102714.25;5066311;28;20366;-53
2022/04/30 11:54:08;;;;;;;6.55;4.30;;;;;;;15.24;44.39;102712.88;5057655;28;20094;-53
2022/04/30 11:56:34;;;;;;;7.32;4.35;;;;;;;15.05;44.37;102716.47;5058298;28;20429;-54
2022/04/30 11:59:00;;;;;;;9.15;3.85;;;;;;;14.93;44.96;102714.28;5058495;28;20468;-52
2022/04/30 12:01:29;;;;;;;6.97;4.57;;;;;;;14.75;45.46;102713.53;5062747;28;20101;-59
2022/04/30 12:03:58;;;;;;;7.60;4.60;;;;;;;14.68;45.89;102708.91;5056747;28;20119;-52
2022/04/30 12:06:25;;;;;;;7.72;4.60;;;;;;;14.54;46.31;102712.66;5061789;28;20031;-54
2022/04/30 12:08:50;;;;;;;7.65;4.22;;;;;;;14.40;46.46;102707.75;5068504;28;20447;-52